KSLE/SLE METAR and TAF weather

Enter ICAO airport designator
Station Type Date Time Source
KSLE METAR 2022/12/10 01:56 UTC NOAA

KSLE 100156Z 17011KT 10SM -RA BKN033 OVC041 07/05 A2952 RMK AO2 SLP995 P0002 T00720050


Station Type Date Time Source
KSLE Decoded METAR 2022/12/10 01:56 UTC NOAA

SALEM MCNARY FIELD, OR, United States (KSLE) 44-54N 123-00W 59M
Dec 09, 2022 - 08:56 PM EST / 2022.12.10 0156 UTC
Wind: from the S (170 degrees) at 13 MPH (11 KT):0
Visibility: 10 mile(s):0
Sky conditions: overcast
Weather: light rain
Precipitation last hour: 0.02 inches
Temperature: 45.0 F (7.2 C)
Dew Point: 41.0 F (5.0 C)
Relative Humidity: 85%
Pressure (altimeter): 29.52 in. Hg (999 hPa)
ob: KSLE 100156Z 17011KT 10SM -RA BKN033 OVC041 07/05 A2952 RMK AO2 SLP995 P0002 T00720050
cycle: 2

Station Type Date Time Source
KSLE TAF 2022/12/09 18:27 UTC NOAA

TAF KSLE 091723Z 0918/1018 17012G22KT P6SM -RA OVC050
FM091900 17012G22KT P6SM -RA OVC027
FM092200 16014KT 4SM -RA BR OVC018
FM100300 17018G29KT 5SM -RA BR OVC024 WS020/19050KT
FM101200 18016G29KT P6SM RA OVC029 WS020/19045KT
FM101700 18013G26KT P6SM RA OVC035

Example: see airport list